Time;durP1;ratioP1;P1;durP2;ratioP2;P2;SDS_P1;SDS_P2;PMS_P1;PMS_P2;Temp;Humidity;BMP_temperature;BMP_pressure;BME280_temperature;BME280_humidity;BME280_pressure;Samples;Min_cycle;Max_cycle;Signal;HPM_P1;HPM_P2
2021/12/18 00:00:52;;;;;;;4.07;2.42;;;18.50;52.80;;;;;;5028951;28;20460;-60
2021/12/18 00:03:19;;;;;;;2.38;2.15;;;18.50;52.80;;;;;;5025823;28;20073;-59
2021/12/18 00:05:46;;;;;;;2.75;2.33;;;18.50;52.80;;;;;;5033059;28;20045;-60
2021/12/18 00:08:13;;;;;;;3.17;2.55;;;18.50;52.70;;;;;;5038043;28;20794;-59
2021/12/18 00:10:41;;;;;;;2.28;1.98;;;18.50;52.70;;;;;;5037303;28;20041;-60
2021/12/18 00:13:08;;;;;;;2.45;2.03;;;18.50;52.70;;;;;;5031403;28;20044;-59
2021/12/18 00:15:35;;;;;;;2.97;2.38;;;18.50;52.70;;;;;;5040273;28;20046;-60
2021/12/18 00:18:03;;;;;;;2.58;1.73;;;18.50;52.70;;;;;;5027639;28;20073;-59
2021/12/18 00:20:31;;;;;;;2.63;2.33;;;18.50;52.60;;;;;;5034765;28;20045;-60
2021/12/18 00:22:58;;;;;;;2.88;1.90;;;18.50;52.60;;;;;;5037683;28;20531;-60
2021/12/18 00:25:25;;;;;;;3.55;2.22;;;18.50;52.60;;;;;;5038078;28;20049;-60
2021/12/18 00:27:52;;;;;;;1.40;1.30;;;18.50;52.60;;;;;;5028945;28;20057;-60
2021/12/18 00:30:20;;;;;;;3.28;1.52;;;18.50;52.60;;;;;;5042219;28;20060;-60
2021/12/18 00:32:47;;;;;;;4.25;2.20;;;18.50;52.50;;;;;;5026589;28;20907;-60
2021/12/18 00:35:17;;;;;;;2.08;1.33;;;18.50;52.50;;;;;;5031535;28;20494;-59
2021/12/18 00:37:45;;;;;;;3.30;2.90;;;18.50;52.50;;;;;;5034145;28;20053;-60
2021/12/18 00:40:19;;;;;;;1.90;1.70;;;18.50;52.50;;;;;;5037504;28;20037;-60
2021/12/18 00:42:49;;;;;;;2.05;1.90;;;18.50;52.40;;;;;;5028082;28;20154;-60
2021/12/18 00:45:18;;;;;;;1.83;1.73;;;18.50;52.40;;;;;;5028513;28;20099;-60
2021/12/18 00:47:46;;;;;;;2.67;1.42;;;18.50;52.40;;;;;;5035414;28;20049;-60
2021/12/18 00:50:18;;;;;;;1.70;1.40;;;18.40;52.60;;;;;;5032347;28;20045;-60
2021/12/18 00:52:46;;;;;;;2.80;1.70;;;18.40;52.30;;;;;;5036894;28;20128;-60
2021/12/18 00:55:13;;;;;;;2.45;1.70;;;18.40;52.30;;;;;;5033942;28;20518;-60
2021/12/18 00:57:40;;;;;;;1.58;1.20;;;18.40;52.30;;;;;;5033026;28;20050;-60
2021/12/18 01:00:10;;;;;;;1.55;1.30;;;18.40;52.30;;;;;;5039933;28;20037;-60
2021/12/18 01:02:41;;;;;;;1.52;1.42;;;18.40;52.20;;;;;;5036818;28;20093;-60
2021/12/18 01:05:08;;;;;;;3.28;1.50;;;18.40;52.20;;;;;;5035953;28;20601;-60
2021/12/18 01:07:37;;;;;;;2.83;1.23;;;18.40;52.80;;;;;;5036968;28;20493;-60
2021/12/18 01:10:21;;;;;;;1.75;1.65;;;18.40;52.20;;;;;;5042769;28;20041;-60
2021/12/18 01:12:50;;;;;;;2.25;1.63;;;18.40;52.10;;;;;;5031116;28;20127;-60
2021/12/18 01:15:23;;;;;;;2.55;1.73;;;18.40;52.20;;;;;;5033760;28;20061;-60
2021/12/18 01:23:22;;;;;;;1.63;1.05;;;18.40;52.10;;;;;;5038423;28;20119;-60
2021/12/18 01:25:49;;;;;;;2.25;0.88;;;18.30;52.10;;;;;;5032296;28;20045;-60
2021/12/18 01:28:16;;;;;;;1.70;1.42;;;18.30;52.00;;;;;;5034629;28;20064;-60
2021/12/18 01:30:44;;;;;;;2.28;2.13;;;18.40;52.10;;;;;;5031002;28;20803;-60
2021/12/18 01:33:11;;;;;;;1.80;1.40;;;18.40;52.00;;;;;;5034675;28;20060;-60
2021/12/18 01:35:38;;;;;;;2.38;1.48;;;18.40;52.00;;;;;;5032962;28;20044;-60
2021/12/18 01:38:05;;;;;;;1.42;1.15;;;18.40;52.00;;;;;;5038421;28;20041;-60
2021/12/18 01:40:33;;;;;;;2.78;1.60;;;18.30;51.90;;;;;;5033544;28;20045;-61
2021/12/18 01:46:10;;;;;;;2.90;0.68;;;18.30;51.90;;;;;;5042045;28;20083;-59
2021/12/18 01:51:25;;;;;;;3.00;1.17;;;18.30;51.80;;;;;;5042242;28;20221;-61
2021/12/18 01:53:56;;;;;;;1.05;0.85;;;18.30;51.90;;;;;;5031875;28;20072;-61
2021/12/18 01:56:27;;;;;;;1.90;0.82;;;18.30;51.90;;;;;;5032547;28;20536;-60
2021/12/18 01:58:55;;;;;;;1.35;1.02;;;18.30;51.80;;;;;;5031489;28;20053;-59
2021/12/18 02:01:23;;;;;;;1.00;1.00;;;18.30;51.80;;;;;;5033383;28;20474;-60
2021/12/18 02:03:50;;;;;;;0.77;0.77;;;18.30;51.80;;;;;;5029868;28;20049;-60
2021/12/18 02:06:17;;;;;;;1.15;0.82;;;18.30;51.70;;;;;;5031616;28;20045;-60
2021/12/18 02:08:45;;;;;;;1.15;0.90;;;18.30;51.70;;;;;;5044959;28;20045;-61
2021/12/18 02:11:25;;;;;;;1.15;1.05;;;18.30;51.60;;;;;;5033602;28;20095;-58
2021/12/18 02:19:48;;;;;;;1.25;1.05;;;18.30;51.60;;;;;;5034786;28;20029;-58
2021/12/18 02:22:19;;;;;;;1.10;0.88;;;18.30;51.60;;;;;;5032029;28;20493;-58
2021/12/18 02:24:46;;;;;;;1.50;1.10;;;18.30;51.70;;;;;;5029687;28;20102;-58
2021/12/18 02:27:13;;;;;;;1.25;1.10;;;18.20;51.60;;;;;;5026947;28;20043;-59
2021/12/18 02:29:41;;;;;;;0.73;0.73;;;18.30;51.60;;;;;;5034861;28;20054;-59
2021/12/18 02:32:10;;;;;;;1.55;1.25;;;18.20;51.50;;;;;;5037186;28;20037;-59
2021/12/18 02:34:39;;;;;;;0.63;0.50;;;18.20;51.50;;;;;;5031160;28;20052;-58
2021/12/18 02:37:09;;;;;;;2.58;1.13;;;18.20;51.50;;;;;;5031996;28;20044;-57
2021/12/18 02:42:22;;;;;;;0.73;0.73;;;18.20;51.50;;;;;;4981658;28;20054;-58
2021/12/18 02:44:50;;;;;;;0.80;0.80;;;18.20;51.40;;;;;;4980892;28;20526;-59
2021/12/18 02:47:17;;;;;;;0.70;0.50;;;18.20;51.40;;;;;;4981169;28;20096;-58
2021/12/18 02:49:45;;;;;;;0.50;0.50;;;18.20;51.40;;;;;;4982314;28;20050;-59
2021/12/18 02:52:13;;;;;;;0.50;0.30;;;18.20;51.30;;;;;;4981323;28;20053;-59
2021/12/18 02:54:42;;;;;;;1.10;0.70;;;18.20;51.30;;;;;;4980557;28;20051;-58
2021/12/18 02:57:11;;;;;;;1.02;0.65;;;18.20;51.30;;;;;;4982690;28;20046;-59
2021/12/18 02:59:46;;;;;;;0.60;0.40;;;18.20;51.90;;;;;;4984548;28;20065;-59
2021/12/18 03:02:14;;;;;;;0.77;0.77;;;18.20;51.30;;;;;;4983385;28;20065;-59
2021/12/18 03:04:44;;;;;;;1.73;0.30;;;18.20;51.30;;;;;;4980528;28;20406;-59
2021/12/18 03:07:14;;;;;;;0.50;0.30;;;18.20;51.30;;;;;;4982543;28;20038;-59
2021/12/18 03:19:00;;;;;;;0.30;0.28;;;18.20;51.20;;;;;;4968639;28;20519;-59
2021/12/18 03:24:09;;;;;;;0.50;0.30;;;18.10;51.20;;;;;;4950413;28;20046;-58
2021/12/18 03:26:38;;;;;;;1.77;0.77;;;18.10;51.20;;;;;;4946952;28;20149;-58
2021/12/18 03:29:05;;;;;;;0.50;0.45;;;18.10;51.20;;;;;;4948712;28;20507;-59
2021/12/18 03:31:33;;;;;;;0.40;0.40;;;18.10;51.10;;;;;;4948144;28;20185;-59
2021/12/18 03:34:01;;;;;;;0.95;0.95;;;18.10;51.10;;;;;;4944896;28;20109;-59
2021/12/18 03:36:28;;;;;;;0.60;0.52;;;18.10;51.10;;;;;;4945842;28;20047;-59
2021/12/18 03:38:55;;;;;;;0.30;0.30;;;18.10;51.60;;;;;;4955249;28;20526;-58
2021/12/18 03:41:22;;;;;;;1.25;0.57;;;18.10;51.00;;;;;;4933484;28;20064;-59
2021/12/18 03:43:51;;;;;;;0.50;0.38;;;18.10;51.00;;;;;;4945117;28;20066;-59
2021/12/18 03:46:18;;;;;;;0.35;0.35;;;18.10;50.90;;;;;;4949056;28;20046;-59
2021/12/18 03:48:45;;;;;;;0.30;0.30;;;18.10;51.00;;;;;;4947358;28;20045;-59
2021/12/18 03:51:12;;;;;;;0.32;0.32;;;18.10;50.90;;;;;;4946030;28;20183;-59
2021/12/18 03:53:39;;;;;;;0.50;0.40;;;18.10;50.90;;;;;;4945837;28;20094;-59
2021/12/18 03:56:06;;;;;;;0.85;0.22;;;18.10;50.90;;;;;;5027048;28;20053;-59
2021/12/18 03:58:33;;;;;;;0.50;0.20;;;18.10;50.90;;;;;;5032967;28;20073;-59
2021/12/18 04:01:02;;;;;;;0.52;0.40;;;18.10;50.90;;;;;;5028545;28;20037;-59
2021/12/18 04:03:29;;;;;;;0.60;0.55;;;18.10;50.80;;;;;;5033576;28;20521;-52
2021/12/18 04:05:56;;;;;;;1.95;1.00;;;18.10;50.80;;;;;;5039003;28;20043;-51
2021/12/18 04:08:23;;;;;;;11.05;0.57;;;18.10;51.00;;;;;;5042315;28;20145;-55
2021/12/18 04:10:50;;;;;;;5.10;0.50;;;18.20;51.10;;;;;;5036872;28;20040;-53
2021/12/18 04:13:17;;;;;;;3.63;0.70;;;18.20;51.20;;;;;;5036092;28;20700;-51
2021/12/18 04:15:44;;;;;;;2.20;0.40;;;18.20;51.20;;;;;;5039339;28;20045;-56
2021/12/18 04:18:13;;;;;;;2.80;0.63;;;18.10;51.20;;;;;;5039351;28;20490;-53
2021/12/18 04:20:40;;;;;;;1.10;0.47;;;18.10;51.20;;;;;;5031570;28;20053;-52
2021/12/18 04:23:07;;;;;;;0.95;0.35;;;18.20;51.30;;;;;;5034013;28;20116;-52
2021/12/18 04:25:34;;;;;;;1.02;0.43;;;18.20;51.30;;;;;;5041497;28;20051;-50
2021/12/18 04:28:01;;;;;;;1.98;0.60;;;18.20;51.30;;;;;;5033060;28;20060;-51
2021/12/18 04:30:28;;;;;;;1.65;0.30;;;18.20;51.30;;;;;;5028451;28;20045;-53
2021/12/18 04:32:55;;;;;;;0.32;0.20;;;18.20;51.30;;;;;;5036337;28;20045;-52
2021/12/18 04:35:23;;;;;;;2.40;0.52;;;18.20;51.40;;;;;;5042480;28;20244;-53
2021/12/18 04:37:50;;;;;;;3.35;0.70;;;18.20;51.40;;;;;;5038617;28;20075;-51
2021/12/18 04:40:17;;;;;;;0.38;0.30;;;18.20;51.30;;;;;;5043163;28;20508;-54
2021/12/18 04:42:44;;;;;;;4.38;0.80;;;18.20;51.30;;;;;;5031894;28;20127;-50
2021/12/18 04:45:11;;;;;;;2.65;0.15;;;18.20;51.30;;;;;;5035233;28;20134;-52
2021/12/18 04:47:39;;;;;;;1.27;0.55;;;18.20;51.30;;;;;;5034030;28;20042;-55
2021/12/18 04:50:07;;;;;;;0.43;0.30;;;18.20;51.30;;;;;;5040868;28;20039;-53
2021/12/18 04:52:36;;;;;;;0.28;0.20;;;18.20;51.30;;;;;;5038722;28;20050;-50
2021/12/18 04:55:04;;;;;;;2.70;0.30;;;18.20;51.30;;;;;;5033120;28;20047;-56
2021/12/18 04:57:31;;;;;;;1.08;0.43;;;18.20;51.30;;;;;;5029633;28;20488;-55
2021/12/18 04:59:58;;;;;;;1.83;0.50;;;18.20;51.30;;;;;;5033952;28;20414;-54
2021/12/18 05:02:35;;;;;;;0.77;0.30;;;18.20;51.30;;;;;;5036496;28;20064;-54
2021/12/18 05:05:03;;;;;;;0.52;0.25;;;18.30;51.40;;;;;;5034661;28;20071;-54
2021/12/18 05:07:30;;;;;;;0.20;0.20;;;18.20;51.30;;;;;;5042783;28;20041;-54
2021/12/18 05:09:58;;;;;;;0.40;0.40;;;18.30;51.40;;;;;;5038242;28;20033;-55
2021/12/18 05:12:25;;;;;;;1.92;0.20;;;18.20;51.30;;;;;;5036213;28;20644;-54
2021/12/18 05:14:52;;;;;;;1.33;0.22;;;18.20;51.30;;;;;;5031581;28;20041;-53
2021/12/18 05:17:19;;;;;;;1.85;0.30;;;18.20;51.30;;;;;;5037782;28;20367;-54
2021/12/18 05:19:46;;;;;;;0.55;0.20;;;18.20;51.30;;;;;;5033015;28;20058;-49
2021/12/18 05:22:13;;;;;;;0.28;0.28;;;18.30;51.30;;;;;;5042293;28;20044;-52
2021/12/18 05:24:40;;;;;;;0.50;0.50;;;18.30;51.30;;;;;;5031667;28;20053;-54
2021/12/18 05:27:09;;;;;;;0.30;0.20;;;18.30;51.30;;;;;;5031243;28;20053;-53
2021/12/18 05:29:36;;;;;;;0.40;0.30;;;18.30;51.30;;;;;;5032946;28;20045;-48
2021/12/18 05:32:03;;;;;;;0.20;0.20;;;18.30;51.40;;;;;;5034538;28;20049;-50
2021/12/18 05:34:36;;;;;;;0.43;0.43;;;18.30;51.40;;;;;;5034341;28;20422;-51
2021/12/18 05:37:18;;;;;;;0.63;0.40;;;18.30;51.40;;;;;;5031733;28;20124;-51
2021/12/18 05:39:46;;;;;;;0.70;0.40;;;18.30;51.40;;;;;;5030182;28;20037;-52
2021/12/18 05:42:15;;;;;;;0.60;0.38;;;18.30;51.40;;;;;;5031038;28;20048;-52
2021/12/18 05:44:42;;;;;;;0.93;0.20;;;18.30;51.40;;;;;;5038398;28;20042;-50
2021/12/18 05:47:09;;;;;;;0.20;0.20;;;18.30;51.40;;;;;;5031765;28;20041;-51
2021/12/18 05:49:36;;;;;;;0.40;0.20;;;18.30;51.30;;;;;;5035299;28;20041;-55
2021/12/18 05:52:05;;;;;;;0.20;0.20;;;18.30;51.30;;;;;;5032456;28;20418;-52
2021/12/18 05:54:34;;;;;;;0.30;0.30;;;18.30;51.30;;;;;;5032896;28;20069;-53
2021/12/18 05:57:02;;;;;;;0.40;0.38;;;18.30;51.30;;;;;;5029477;28;20037;-55
2021/12/18 05:59:30;;;;;;;0.20;0.15;;;18.30;51.30;;;;;;5044831;28;20049;-49
2021/12/18 06:01:58;;;;;;;0.95;0.47;;;18.30;51.30;;;;;;5037973;28;20045;-51
2021/12/18 06:04:25;;;;;;;0.13;0.13;;;18.30;51.30;;;;;;5031367;28;20309;-56
2021/12/18 06:06:52;;;;;;;0.10;0.10;;;18.30;51.20;;;;;;5017311;28;20120;-50
2021/12/18 06:09:19;;;;;;;0.40;0.40;;;18.30;51.20;;;;;;5042978;28;26252;-55
2021/12/18 06:11:46;;;;;;;0.20;0.13;;;18.30;51.20;;;;;;5038143;28;20080;-55
2021/12/18 06:14:13;;;;;;;0.38;0.35;;;18.30;51.20;;;;;;5031449;28;20037;-56
2021/12/18 06:16:41;;;;;;;0.40;0.20;;;18.40;51.20;;;;;;5034920;28;20557;-54
2021/12/18 06:19:08;;;;;;;0.30;0.25;;;18.40;51.20;;;;;;5032594;28;20068;-54
2021/12/18 06:21:35;;;;;;;0.20;0.20;;;18.40;51.20;;;;;;5033217;28;20041;-53
2021/12/18 06:24:02;;;;;;;2.20;0.25;;;18.40;51.20;;;;;;5027788;28;20045;-52
2021/12/18 06:26:29;;;;;;;0.20;0.20;;;18.40;51.20;;;;;;5035678;28;20038;-55
2021/12/18 06:28:56;;;;;;;0.43;0.43;;;18.40;51.20;;;;;;5039156;28;20060;-53
2021/12/18 06:31:24;;;;;;;0.30;0.30;;;18.40;51.10;;;;;;5040032;28;20115;-52
2021/12/18 06:33:52;;;;;;;0.38;0.20;;;18.40;51.10;;;;;;5029860;28;20174;-55
2021/12/18 06:36:19;;;;;;;0.28;0.28;;;18.40;51.10;;;;;;5030997;28;20041;-53
2021/12/18 06:38:46;;;;;;;0.25;0.20;;;18.40;51.10;;;;;;5044726;28;20044;-54
2021/12/18 06:41:13;;;;;;;2.67;0.30;;;18.40;51.10;;;;;;5029436;28;20040;-50
2021/12/18 06:43:41;;;;;;;0.20;0.20;;;18.40;51.10;;;;;;5035186;28;20048;-52
2021/12/18 06:46:09;;;;;;;0.20;0.20;;;18.40;51.10;;;;;;5029469;28;20470;-53
2021/12/18 06:48:36;;;;;;;0.30;0.20;;;18.40;51.10;;;;;;5027697;28;20037;-54
2021/12/18 06:51:04;;;;;;;0.32;0.30;;;18.40;51.10;;;;;;5031530;28;20584;-53
2021/12/18 06:53:31;;;;;;;0.20;0.20;;;18.40;51.10;;;;;;5036401;28;20502;-56
2021/12/18 06:55:59;;;;;;;0.20;0.20;;;18.40;51.10;;;;;;5029761;28;20041;-53
2021/12/18 06:58:25;;;;;;;0.25;0.20;;;18.40;51.10;;;;;;5032985;28;20406;-53
2021/12/18 07:00:53;;;;;;;0.30;0.20;;;18.40;51.10;;;;;;5036211;28;20037;-50
2021/12/18 07:03:21;;;;;;;0.30;0.30;;;18.40;51.10;;;;;;5032049;28;20121;-52
2021/12/18 07:05:48;;;;;;;1.38;0.20;;;18.40;51.10;;;;;;5031391;28;20577;-53
2021/12/18 07:08:17;;;;;;;0.30;0.30;;;18.30;51.00;;;;;;5040360;28;20056;-54
2021/12/18 07:10:45;;;;;;;0.10;0.10;;;18.40;51.10;;;;;;5038581;28;20043;-53
2021/12/18 07:13:12;;;;;;;0.20;0.20;;;18.30;51.00;;;;;;5029745;28;20040;-53
2021/12/18 07:15:42;;;;;;;0.20;0.20;;;18.30;51.00;;;;;;5030701;28;20054;-50
2021/12/18 07:18:09;;;;;;;0.32;0.32;;;18.30;51.00;;;;;;5031522;28;20490;-55
2021/12/18 07:20:36;;;;;;;1.65;0.30;;;18.30;51.10;;;;;;5038463;28;20064;-51
2021/12/18 07:23:03;;;;;;;1.08;0.10;;;18.30;51.00;;;;;;5029700;28;20478;-54
2021/12/18 07:25:32;;;;;;;0.57;0.20;;;18.30;51.10;;;;;;5033281;28;20122;-55
2021/12/18 07:27:59;;;;;;;0.32;0.32;;;18.30;51.60;;;;;;5029316;28;20711;-53
2021/12/18 07:30:26;;;;;;;0.50;0.20;;;18.30;51.10;;;;;;5030947;28;20092;-54
2021/12/18 07:32:53;;;;;;;1.48;0.28;;;18.30;51.00;;;;;;5029839;28;20474;-52
2021/12/18 07:35:20;;;;;;;0.22;0.15;;;18.30;51.00;;;;;;5033451;28;20056;-53
2021/12/18 07:37:47;;;;;;;0.68;0.20;;;18.30;51.00;;;;;;5035813;28;20049;-51
2021/12/18 07:40:15;;;;;;;0.30;0.28;;;18.30;51.00;;;;;;5038015;28;20416;-50
2021/12/18 07:42:43;;;;;;;0.63;0.20;;;18.30;51.00;;;;;;5027386;28;20052;-54
2021/12/18 07:45:12;;;;;;;0.13;0.10;;;18.30;51.00;;;;;;5031286;28;20073;-52
2021/12/18 07:47:40;;;;;;;2.85;0.20;;;18.30;51.00;;;;;;5037017;28;20060;-54
2021/12/18 07:50:12;;;;;;;0.30;0.30;;;18.30;51.00;;;;;;5029578;28;20253;-54
2021/12/18 07:52:40;;;;;;;0.20;0.20;;;18.30;51.00;;;;;;5033607;28;20053;-55
2021/12/18 07:55:08;;;;;;;0.20;0.20;;;18.30;51.00;;;;;;5025624;28;20870;-55
2021/12/18 07:57:35;;;;;;;0.20;0.20;;;18.30;51.00;;;;;;5040051;28;20050;-54
2021/12/18 08:00:06;;;;;;;0.30;0.20;;;18.30;51.10;;;;;;5034255;28;20068;-54
2021/12/18 08:02:34;;;;;;;0.55;0.30;;;18.30;51.10;;;;;;5035273;28;20404;-54
2021/12/18 08:05:02;;;;;;;1.98;0.30;;;18.30;51.00;;;;;;5033629;28;20091;-52
2021/12/18 08:07:29;;;;;;;0.20;0.20;;;18.30;51.10;;;;;;5037383;28;20206;-55
2021/12/18 08:09:56;;;;;;;0.70;0.70;;;18.30;51.00;;;;;;5044515;28;20679;-53
2021/12/18 08:12:23;;;;;;;0.47;0.20;;;18.30;51.00;;;;;;5033486;28;20052;-52
2021/12/18 08:14:50;;;;;;;0.35;0.35;;;18.30;51.00;;;;;;5030308;28;20415;-55
2021/12/18 08:17:19;;;;;;;0.47;0.10;;;18.30;51.00;;;;;;5035964;28;20053;-53
2021/12/18 08:19:46;;;;;;;0.63;0.30;;;18.30;51.00;;;;;;5036914;28;20045;-53
2021/12/18 08:22:13;;;;;;;0.40;0.30;;;18.30;51.00;;;;;;5032555;28;20113;-56
2021/12/18 08:24:40;;;;;;;0.25;0.10;;;18.30;51.00;;;;;;5031201;28;20072;-54
2021/12/18 08:27:08;;;;;;;0.93;0.50;;;18.30;51.00;;;;;;5033382;28;20153;-56
2021/12/18 08:29:35;;;;;;;0.32;0.30;;;18.30;50.90;;;;;;5038326;28;20136;-56
2021/12/18 08:32:03;;;;;;;0.82;0.30;;;18.40;51.00;;;;;;5033287;28;20041;-53
2021/12/18 08:34:32;;;;;;;0.30;0.30;;;18.30;50.90;;;;;;5035792;28;20082;-48
2021/12/18 08:36:59;;;;;;;0.85;0.85;;;18.30;50.90;;;;;;5028293;28;20510;-57
2021/12/18 08:39:26;;;;;;;1.98;0.40;;;18.40;51.00;;;;;;5043472;28;20041;-55
2021/12/18 08:41:54;;;;;;;0.30;0.20;;;18.30;50.90;;;;;;5035355;28;20046;-54
2021/12/18 08:44:21;;;;;;;1.02;0.30;;;18.30;50.90;;;;;;5045331;28;20049;-54
2021/12/18 08:46:48;;;;;;;0.38;0.30;;;18.40;51.00;;;;;;5042230;28;20049;-56
2021/12/18 08:49:16;;;;;;;1.27;0.10;;;18.40;51.00;;;;;;5032504;28;20437;-56
2021/12/18 08:51:44;;;;;;;0.20;0.20;;;18.40;51.00;;;;;;5030369;28;20107;-56
2021/12/18 08:54:12;;;;;;;0.20;0.20;;;18.40;51.00;;;;;;5032878;28;20526;-56
2021/12/18 08:56:39;;;;;;;0.47;0.28;;;18.40;50.90;;;;;;5039568;28;20073;-53
2021/12/18 08:59:06;;;;;;;0.30;0.25;;;18.40;50.90;;;;;;5036242;28;20403;-55
2021/12/18 09:01:34;;;;;;;0.43;0.17;;;18.40;50.90;;;;;;5035974;28;20083;-52
2021/12/18 09:04:01;;;;;;;0.25;0.22;;;18.40;50.90;;;;;;5032955;28;20395;-53
2021/12/18 09:06:28;;;;;;;1.50;0.32;;;18.40;50.90;;;;;;5033932;28;20149;-54
2021/12/18 09:08:57;;;;;;;1.20;0.40;;;18.40;50.80;;;;;;5044463;28;20045;-51
2021/12/18 09:11:25;;;;;;;0.30;0.30;;;18.50;50.80;;;;;;5036850;28;20165;-54
2021/12/18 09:13:52;;;;;;;1.08;0.30;;;18.40;50.80;;;;;;5039662;28;20056;-53
2021/12/18 09:16:20;;;;;;;0.38;0.10;;;18.50;50.80;;;;;;5032073;28;20042;-53
2021/12/18 09:18:47;;;;;;;0.32;0.20;;;18.50;50.70;;;;;;5030778;28;20099;-54
2021/12/18 09:21:14;;;;;;;0.68;0.20;;;18.50;50.70;;;;;;5033139;28;20061;-53
2021/12/18 09:23:41;;;;;;;1.85;0.20;;;18.50;50.80;;;;;;5033186;28;20056;-56
2021/12/18 09:26:10;;;;;;;0.30;0.25;;;18.50;50.70;;;;;;5036808;28;20577;-55
2021/12/18 09:28:37;;;;;;;0.40;0.30;;;18.50;50.70;;;;;;5034532;28;20532;-55
2021/12/18 09:31:04;;;;;;;0.57;0.25;;;18.50;51.00;;;;;;5032134;28;20411;-54
2021/12/18 09:33:31;;;;;;;1.70;0.40;;;18.50;50.70;;;;;;5026770;28;20041;-53
2021/12/18 09:35:59;;;;;;;2.90;1.08;;;18.50;50.60;;;;;;5034584;28;20068;-55
2021/12/18 09:38:26;;;;;;;3.33;0.70;;;18.50;50.60;;;;;;5039774;28;20504;-55
2021/12/18 09:40:53;;;;;;;2.65;0.90;;;18.60;50.70;;;;;;5035117;28;20037;-55
2021/12/18 09:43:23;;;;;;;2.65;0.90;;;18.60;50.60;;;;;;5034101;28;20045;-56
2021/12/18 09:45:51;;;;;;;4.10;2.08;;;18.60;50.60;;;;;;5030546;28;20120;-55
2021/12/18 09:48:18;;;;;;;3.13;1.67;;;18.60;50.50;;;;;;5032812;28;20034;-56
2021/12/18 09:50:48;;;;;;;4.20;1.92;;;18.60;50.50;;;;;;5033089;28;20109;-55
2021/12/18 09:53:16;;;;;;;2.92;2.03;;;18.60;50.50;;;;;;5034617;28;20041;-55
2021/12/18 09:55:43;;;;;;;4.38;2.63;;;18.70;50.50;;;;;;5036192;28;20351;-56
2021/12/18 09:58:10;;;;;;;7.57;3.08;;;18.70;50.40;;;;;;5031410;28;20041;-57
2021/12/18 10:00:39;;;;;;;7.10;2.88;;;18.70;50.40;;;;;;5029735;28;20915;-55
2021/12/18 10:03:07;;;;;;;7.43;2.88;;;18.70;50.30;;;;;;5032495;28;20038;-56
2021/12/18 10:05:38;;;;;;;6.97;3.03;;;18.70;50.30;;;;;;5034464;28;20053;-55
2021/12/18 10:08:08;;;;;;;6.53;2.92;;;18.70;50.30;;;;;;5038877;28;20501;-52
2021/12/18 10:10:36;;;;;;;10.75;4.15;;;18.80;50.30;;;;;;5040017;28;20045;-50
2021/12/18 10:13:05;;;;;;;9.48;3.80;;;18.80;50.30;;;;;;5031779;28;20045;-54
2021/12/18 10:15:33;;;;;;;8.27;4.20;;;18.80;50.30;;;;;;5035845;28;20055;-56
2021/12/18 10:18:10;;;;;;;5.78;2.95;;;18.80;50.20;;;;;;5036992;28;20051;-53
2021/12/18 10:20:39;;;;;;;6.78;3.35;;;18.80;50.20;;;;;;5040665;28;20041;-56
2021/12/18 10:23:07;;;;;;;13.50;4.32;;;18.90;50.30;;;;;;5038201;28;20037;-55
2021/12/18 10:25:39;;;;;;;8.80;3.95;;;18.90;50.30;;;;;;5033450;28;20048;-56
2021/12/18 10:28:11;;;;;;;10.75;3.55;;;18.90;50.20;;;;;;5034516;28;20110;-56
2021/12/18 10:30:45;;;;;;;12.27;4.90;;;18.90;50.90;;;;;;5036141;28;20051;-58
2021/12/18 10:33:14;;;;;;;12.73;5.28;;;19.00;50.50;;;;;;5041105;28;20221;-57
2021/12/18 10:35:44;;;;;;;10.10;3.92;;;19.00;50.50;;;;;;5042844;28;20037;-58
2021/12/18 10:38:43;;;;;;;12.38;3.60;;;19.00;50.50;;;;;;5037990;28;20386;-53
2021/12/18 10:41:26;;;;;;;20.80;5.65;;;19.10;50.60;;;;;;5038459;28;20045;-52
2021/12/18 10:44:06;;;;;;;21.55;4.28;;;19.10;50.70;;;;;;5037813;28;20033;-51
2021/12/18 10:46:35;;;;;;;19.83;5.20;;;19.20;50.70;;;;;;5034362;28;20043;-54
2021/12/18 10:49:06;;;;;;;20.70;5.80;;;19.20;50.60;;;;;;5030696;28;20037;-52
2021/12/18 10:51:34;;;;;;;23.20;5.47;;;19.30;50.40;;;;;;5028818;28;20061;-54
2021/12/18 10:54:04;;;;;;;13.40;5.15;;;19.30;50.30;;;;;;5031653;28;20474;-54
2021/12/18 10:56:39;;;;;;;15.90;4.40;;;19.30;50.10;;;;;;5044290;28;20040;-54
2021/12/18 10:59:19;;;;;;;12.05;3.75;;;19.40;50.00;;;;;;5030484;28;20084;-51
2021/12/18 11:01:51;;;;;;;17.05;4.53;;;19.40;49.80;;;;;;5031565;28;20045;-50
2021/12/18 11:04:25;;;;;;;11.63;4.00;;;19.50;49.60;;;;;;5032825;28;21486;-57
2021/12/18 11:06:54;;;;;;;13.52;3.97;;;19.60;49.50;;;;;;5035250;28;20474;-56
2021/12/18 11:09:28;;;;;;;10.48;3.85;;;19.60;49.50;;;;;;5034845;28;20034;-55
2021/12/18 11:14:45;;;;;;;13.83;3.27;;;19.70;49.70;;;;;;5035915;28;20099;-48
2021/12/18 11:17:14;;;;;;;16.85;4.60;;;19.70;49.70;;;;;;5034591;28;20052;-51
2021/12/18 11:19:43;;;;;;;30.10;6.95;;;19.70;49.90;;;;;;5036849;28;20520;-53
2021/12/18 11:22:14;;;;;;;24.33;6.15;;;19.70;50.10;;;;;;5033952;28;20041;-55
2021/12/18 11:24:44;;;;;;;28.98;7.10;;;19.80;50.50;;;;;;5035418;28;20041;-61
2021/12/18 11:27:14;;;;;;;16.05;4.88;;;19.90;50.60;;;;;;5036253;28;20042;-61
2021/12/18 11:29:44;;;;;;;11.02;4.30;;;19.90;50.60;;;;;;5038155;28;20048;-61
2021/12/18 11:32:14;;;;;;;18.63;4.88;;;20.00;50.50;;;;;;5035683;28;20045;-62
2021/12/18 11:34:44;;;;;;;11.07;4.47;;;20.00;50.30;;;;;;5036428;28;20037;-61
2021/12/18 11:37:13;;;;;;;13.23;4.18;;;20.10;50.20;;;;;;5035775;28;20041;-62
2021/12/18 11:39:41;;;;;;;16.52;4.22;;;20.10;50.00;;;;;;5036833;28;20455;-61
2021/12/18 11:42:09;;;;;;;11.02;4.85;;;20.10;49.90;;;;;;5035364;28;20037;-64
2021/12/18 11:44:40;;;;;;;12.35;4.00;;;20.20;49.80;;;;;;5037535;28;20052;-63
2021/12/18 11:47:28;;;;;;;7.50;3.20;;;20.20;49.70;;;;;;5039061;28;20609;-61
2021/12/18 11:49:58;;;;;;;13.32;3.00;;;20.30;49.50;;;;;;5038536;28;20049;-61
2021/12/18 11:52:25;;;;;;;11.75;3.72;;;20.30;49.50;;;;;;5035142;28;20049;-62
2021/12/18 11:54:55;;;;;;;10.23;3.40;;;20.30;49.50;;;;;;5034338;28;20037;-71
2021/12/18 11:57:44;;;;;;;13.32;2.88;;;20.30;49.50;;;;;;5035823;28;20053;-71
2021/12/18 12:00:38;;;;;;;9.52;3.30;;;20.40;49.50;;;;;;5032275;28;20133;-72
2021/12/18 12:03:08;;;;;;;5.43;2.60;;;20.50;49.40;;;;;;5026835;28;20049;-71
2021/12/18 12:05:40;;;;;;;7.55;2.35;;;20.50;49.30;;;;;;5032887;28;20041;-71
2021/12/18 12:08:32;;;;;;;8.05;2.45;;;20.50;49.10;;;;;;5039610;28;20048;-71
2021/12/18 12:11:18;;;;;;;10.15;2.63;;;20.50;48.90;;;;;;5029378;28;20129;-71
2021/12/18 12:14:00;;;;;;;7.80;2.20;;;20.50;48.70;;;;;;5034209;28;20052;-71
2021/12/18 12:17:00;;;;;;;8.68;3.00;;;20.60;48.70;;;;;;5038783;28;20124;-71
2021/12/18 12:19:41;;;;;;;6.47;1.60;;;20.60;48.50;;;;;;5032291;28;20037;-70
2021/12/18 12:22:30;;;;;;;3.50;1.95;;;20.60;48.40;;;;;;5028327;28;20055;-71
2021/12/18 12:25:00;;;;;;;6.72;2.22;;;20.60;48.30;;;;;;5030190;28;20052;-71
2021/12/18 12:27:29;;;;;;;4.20;1.52;;;20.70;48.20;;;;;;5025794;28;20194;-71
2021/12/18 12:29:58;;;;;;;5.35;1.60;;;20.70;48.00;;;;;;5028005;28;20590;-72
2021/12/18 12:32:26;;;;;;;3.47;1.48;;;20.70;47.90;;;;;;5033987;28;20041;-71
2021/12/18 12:35:02;;;;;;;5.20;1.33;;;20.80;47.80;;;;;;5032442;28;20041;-71
2021/12/18 12:37:40;;;;;;;2.85;0.80;;;20.80;47.60;;;;;;5029574;28;20033;-71
2021/12/18 12:40:12;;;;;;;3.85;1.02;;;20.80;47.50;;;;;;5039284;28;20772;-71
2021/12/18 12:42:41;;;;;;;2.85;1.17;;;20.80;47.50;;;;;;5028242;28;20041;-72
2021/12/18 12:45:30;;;;;;;2.92;1.38;;;20.80;47.40;;;;;;5029360;28;20057;-71
2021/12/18 12:47:57;;;;;;;3.03;0.93;;;20.90;47.30;;;;;;5031629;28;20050;-72
2021/12/18 12:50:30;;;;;;;2.17;1.02;;;20.90;47.20;;;;;;5050229;28;20062;-71
2021/12/18 12:53:00;;;;;;;2.53;1.05;;;20.90;47.10;;;;;;5033266;28;20399;-71
2021/12/18 12:55:30;;;;;;;6.03;1.65;;;21.00;47.00;;;;;;5033694;28;20049;-71
2021/12/18 12:57:58;;;;;;;3.63;1.38;;;21.00;46.90;;;;;;5031015;28;20040;-71
2021/12/18 13:00:45;;;;;;;4.97;1.00;;;21.00;46.80;;;;;;5043831;28;20041;-71
2021/12/18 13:03:30;;;;;;;2.72;0.65;;;21.10;46.80;;;;;;5029746;28;20041;-71
2021/12/18 13:06:08;;;;;;;2.88;1.30;;;21.00;46.70;;;;;;5031878;28;20112;-70
2021/12/18 13:08:38;;;;;;;1.83;1.23;;;21.10;46.70;;;;;;5045804;28;20413;-71
2021/12/18 13:11:06;;;;;;;3.17;0.90;;;21.10;46.70;;;;;;5033418;28;20550;-71
2021/12/18 13:13:35;;;;;;;3.58;1.70;;;21.10;46.50;;;;;;5033854;28;20433;-70
2021/12/18 13:16:06;;;;;;;3.08;1.20;;;21.20;46.50;;;;;;5032990;28;20040;-70
2021/12/18 13:18:37;;;;;;;2.00;0.40;;;21.20;46.40;;;;;;5033510;28;20045;-70
2021/12/18 13:21:09;;;;;;;1.52;0.70;;;21.20;46.30;;;;;;5030429;28;20041;-70
2021/12/18 13:24:05;;;;;;;2.38;0.73;;;21.20;46.30;;;;;;5032267;28;20041;-70
2021/12/18 13:26:35;;;;;;;3.15;1.25;;;21.30;46.20;;;;;;5037454;28;20100;-70
2021/12/18 13:29:07;;;;;;;2.28;0.60;;;21.30;46.20;;;;;;5032623;28;20049;-71
2021/12/18 13:31:39;;;;;;;2.80;0.45;;;21.30;46.20;;;;;;5039854;28;20136;-70